Time;durP1;ratioP1;P1;durP2;ratioP2;P2;SDS_P1;SDS_P2;PMS_P1;PMS_P2;Temp;Humidity;BMP_temperature;BMP_pressure;BME280_temperature;BME280_humidity;BME280_pressure;Samples;Min_cycle;Max_cycle;Signal;HPM_P1;HPM_P2
2023/04/25 00:01:59;;;;;;;4.40;2.45;;;10.50;57.70;;;;;;5059779;28;20415;-81
2023/04/25 00:04:26;;;;;;;4.05;2.45;;;10.50;55.30;;;;;;5059767;28;20390;-80
2023/04/25 00:06:53;;;;;;;2.55;2.35;;;10.50;57.60;;;;;;5059104;28;20431;-81
2023/04/25 00:09:18;;;;;;;4.05;2.40;;;10.40;58.40;;;;;;5070846;28;20479;-81
2023/04/25 00:11:44;;;;;;;4.78;2.13;;;10.50;55.00;;;;;;5091625;28;20384;-81
2023/04/25 00:14:09;;;;;;;2.60;2.40;;;10.50;53.90;;;;;;5062075;28;20416;-81
2023/04/25 00:16:35;;;;;;;4.10;2.40;;;10.40;55.70;;;;;;5078644;28;20392;-81
2023/04/25 00:19:02;;;;;;;2.77;2.53;;;10.20;61.40;;;;;;5078553;28;20462;-80
2023/04/25 00:21:28;;;;;;;4.82;3.00;;;10.20;63.90;;;;;;5077295;28;20436;-81
2023/04/25 00:23:54;;;;;;;3.90;2.40;;;10.20;73.00;;;;;;5058924;28;20392;-81
2023/04/25 00:26:23;;;;;;;3.05;2.75;;;10.20;77.60;;;;;;5076740;28;20448;-81
2023/04/25 00:28:48;;;;;;;6.18;2.70;;;10.10;74.60;;;;;;5076477;28;20414;-81
2023/04/25 00:31:14;;;;;;;3.83;2.55;;;10.00;70.80;;;;;;5076818;28;20368;-81
2023/04/25 00:33:40;;;;;;;3.10;2.42;;;10.00;72.80;;;;;;5076489;28;20757;-81
2023/04/25 00:36:06;;;;;;;3.20;2.80;;;10.00;79.60;;;;;;5075922;28;20455;-80
2023/04/25 00:38:32;;;;;;;3.70;2.30;;;10.00;81.20;;;;;;5076199;28;20872;-81
2023/04/25 00:40:57;;;;;;;8.00;2.63;;;10.10;82.70;;;;;;5076415;28;20376;-81
2023/04/25 00:43:25;;;;;;;3.30;2.85;;;10.00;88.40;;;;;;5080854;28;20401;-81
2023/04/25 00:45:52;;;;;;;5.20;2.90;;;9.90;92.50;;;;;;5080759;28;20427;-81
2023/04/25 00:48:18;;;;;;;3.60;2.40;;;9.90;95.80;;;;;;5077431;28;20383;-81
2023/04/25 00:50:53;;;;;;;3.50;2.90;;;9.90;98.20;;;;;;5076700;28;20371;-81
2023/04/25 00:53:20;;;;;;;3.28;2.50;;;9.90;98.80;;;;;;5068744;28;20384;-81
2023/04/25 00:55:46;;;;;;;3.35;2.70;;;9.90;95.70;;;;;;5082342;28;20383;-81
2023/04/25 00:58:11;;;;;;;3.25;2.65;;;9.90;99.90;;;;;;5069800;28;20404;-80
2023/04/25 01:00:37;;;;;;;4.55;2.92;;;9.90;95.60;;;;;;5070403;28;20451;-81
2023/04/25 01:03:03;;;;;;;5.60;3.20;;;9.90;98.00;;;;;;5039376;28;20393;-82
2023/04/25 01:05:29;;;;;;;5.55;2.92;;;9.90;98.40;;;;;;5057177;28;20385;-81
2023/04/25 01:07:54;;;;;;;3.97;2.80;;;9.90;99.10;;;;;;5057428;28;20384;-81
2023/04/25 01:10:20;;;;;;;2.85;2.65;;;9.80;99.90;;;;;;5057579;28;20385;-82
2023/04/25 01:12:46;;;;;;;3.40;2.60;;;9.80;99.90;;;;;;5056391;28;20389;-81
2023/04/25 01:15:12;;;;;;;5.80;2.90;;;9.90;99.90;;;;;;5056777;28;20427;-81
2023/04/25 01:17:39;;;;;;;3.65;2.80;;;9.70;99.90;;;;;;5055496;28;20887;-81
2023/04/25 01:20:05;;;;;;;4.57;2.78;;;9.70;99.90;;;;;;5055602;28;20388;-81
2023/04/25 01:22:32;;;;;;;5.30;3.20;;;9.70;99.90;;;;;;5037554;28;20446;-81
2023/04/25 01:24:58;;;;;;;4.20;2.90;;;9.70;99.90;;;;;;5057037;28;20386;-81
2023/04/25 01:27:25;;;;;;;6.05;2.90;;;9.70;99.90;;;;;;5037532;28;20490;-80
2023/04/25 01:29:51;;;;;;;5.25;3.00;;;9.70;99.90;;;;;;5056634;28;20388;-81
2023/04/25 01:32:17;;;;;;;5.00;2.90;;;9.80;99.90;;;;;;5056135;28;20469;-81
2023/04/25 01:34:43;;;;;;;5.57;3.00;;;9.80;99.90;;;;;;5056176;28;20404;-81
2023/04/25 01:37:08;;;;;;;6.05;3.03;;;9.70;99.90;;;;;;5037562;28;20386;-80
2023/04/25 01:39:34;;;;;;;3.70;2.93;;;9.80;99.90;;;;;;5056006;28;20794;-81
2023/04/25 01:42:00;;;;;;;4.40;3.20;;;9.80;99.90;;;;;;5038171;28;20973;-80
2023/04/25 01:44:26;;;;;;;5.00;3.00;;;9.80;99.90;;;;;;5055972;28;20378;-80
2023/04/25 01:46:51;;;;;;;3.70;2.73;;;9.70;99.90;;;;;;5054459;28;20795;-80
2023/04/25 01:49:17;;;;;;;3.30;2.60;;;9.70;99.90;;;;;;5055791;28;20377;-81
2023/04/25 01:51:43;;;;;;;6.27;2.80;;;9.80;99.90;;;;;;5055752;28;20373;-81
2023/04/25 01:54:10;;;;;;;3.10;2.57;;;10.00;97.60;;;;;;5055565;28;20389;-81
2023/04/25 01:56:38;;;;;;;5.45;2.53;;;10.10;95.40;;;;;;5036567;28;20397;-81
2023/04/25 01:59:05;;;;;;;3.60;2.75;;;10.10;94.80;;;;;;5069629;28;20757;-80
2023/04/25 02:01:30;;;;;;;4.30;2.95;;;10.00;96.30;;;;;;5057018;28;20387;-80
2023/04/25 02:03:56;;;;;;;3.05;2.80;;;10.00;92.60;;;;;;5075181;28;20935;-80
2023/04/25 02:06:21;;;;;;;5.53;3.00;;;10.10;85.40;;;;;;5074480;28;20399;-81
2023/04/25 02:08:47;;;;;;;3.47;2.40;;;10.20;79.10;;;;;;5056997;28;20854;-81
2023/04/25 02:11:13;;;;;;;5.60;2.70;;;10.10;83.30;;;;;;5056729;28;20427;-81
2023/04/25 02:13:38;;;;;;;5.27;2.60;;;10.10;91.80;;;;;;5074873;28;20375;-80
2023/04/25 02:16:04;;;;;;;5.13;2.33;;;10.10;80.30;;;;;;5073047;28;20765;-81
2023/04/25 02:18:31;;;;;;;4.93;3.10;;;10.10;75.30;;;;;;5073432;28;20409;-81
2023/04/25 02:20:57;;;;;;;5.32;2.60;;;10.10;76.60;;;;;;5074760;28;20384;-81
2023/04/25 02:23:23;;;;;;;3.58;2.30;;;10.10;80.60;;;;;;5073914;28;20452;-81
2023/04/25 02:25:49;;;;;;;5.50;2.63;;;10.00;73.60;;;;;;5073372;28;20403;-81
2023/04/25 02:28:14;;;;;;;2.60;2.38;;;10.10;72.10;;;;;;5074670;28;20884;-81
2023/04/25 02:30:40;;;;;;;5.00;2.40;;;10.10;76.80;;;;;;5073915;28;20388;-81
2023/04/25 02:33:06;;;;;;;6.40;2.50;;;10.10;74.60;;;;;;5056069;28;20909;-81
2023/04/25 02:35:31;;;;;;;4.50;2.70;;;10.10;76.10;;;;;;5075378;28;20384;-80
2023/04/25 02:37:57;;;;;;;3.45;2.60;;;10.00;81.70;;;;;;5074585;28;20384;-81
2023/04/25 02:40:22;;;;;;;4.20;2.60;;;10.10;78.70;;;;;;5064742;28;20496;-80
2023/04/25 02:42:48;;;;;;;4.77;2.30;;;10.10;78.40;;;;;;5080138;28;21003;-80
2023/04/25 02:45:13;;;;;;;4.20;2.50;;;10.10;76.60;;;;;;5063771;28;20414;-80
2023/04/25 02:47:39;;;;;;;4.65;2.58;;;10.00;79.80;;;;;;5061888;28;20400;-80
2023/04/25 02:50:06;;;;;;;4.25;2.08;;;10.10;83.70;;;;;;5074982;28;20379;-81
2023/04/25 02:52:31;;;;;;;4.68;2.25;;;10.10;88.60;;;;;;5056805;28;20376;-81
2023/04/25 02:54:57;;;;;;;3.80;2.40;;;10.00;86.50;;;;;;5073608;28;20947;-81
2023/04/25 02:57:22;;;;;;;6.10;2.80;;;10.10;92.40;;;;;;5055267;28;20401;-81
2023/04/25 02:59:48;;;;;;;4.60;3.17;;;10.00;81.20;;;;;;5066884;28;20389;-81
2023/04/25 03:02:13;;;;;;;4.22;2.75;;;10.10;69.70;;;;;;5056019;28;20385;-80
2023/04/25 03:04:39;;;;;;;5.20;2.40;;;10.10;69.90;;;;;;5077666;28;20439;-80
2023/04/25 03:07:05;;;;;;;4.60;2.40;;;10.10;70.50;;;;;;5066545;28;20481;-80
2023/04/25 03:09:30;;;;;;;3.63;2.60;;;10.10;79.40;;;;;;5065696;28;20376;-81
2023/04/25 03:11:56;;;;;;;4.03;2.33;;;10.10;68.70;;;;;;5063355;28;20393;-80
2023/04/25 03:14:21;;;;;;;4.07;2.40;;;10.10;85.90;;;;;;5054008;28;20765;-81
2023/04/25 03:16:47;;;;;;;3.40;2.50;;;10.00;68.60;;;;;;5068509;28;20379;-80
2023/04/25 03:19:15;;;;;;;5.30;2.73;;;10.00;67.80;;;;;;5051033;28;20906;-80
2023/04/25 03:21:41;;;;;;;4.60;2.60;;;10.00;78.10;;;;;;5072621;28;20464;-81
2023/04/25 03:24:06;;;;;;;3.47;2.70;;;10.00;82.70;;;;;;5073048;28;20470;-81
2023/04/25 03:26:32;;;;;;;3.40;2.50;;;9.90;98.40;;;;;;5071644;28;20399;-80
2023/04/25 03:28:57;;;;;;;3.10;2.30;;;9.90;94.20;;;;;;5048368;28;20383;-81
2023/04/25 03:31:23;;;;;;;3.70;2.30;;;10.10;58.90;;;;;;5069378;28;20375;-80
2023/04/25 03:33:49;;;;;;;6.60;2.60;;;10.10;54.80;;;;;;5074250;28;20388;-81
2023/04/25 03:36:14;;;;;;;2.95;2.13;;;10.10;51.50;;;;;;5073291;28;20375;-80
2023/04/25 03:38:41;;;;;;;4.93;2.40;;;10.10;49.90;;;;;;5073541;28;20414;-80
2023/04/25 03:41:07;;;;;;;2.90;2.60;;;10.20;45.60;;;;;;5073125;28;20896;-80
2023/04/25 03:43:33;;;;;;;2.20;2.00;;;10.20;47.30;;;;;;5073573;28;20388;-80
2023/04/25 03:45:58;;;;;;;5.85;2.50;;;10.10;56.10;;;;;;5055512;28;20396;-80
2023/04/25 03:48:25;;;;;;;3.90;2.27;;;10.10;55.20;;;;;;5073660;28;20466;-80
2023/04/25 03:50:52;;;;;;;4.10;2.72;;;9.90;88.80;;;;;;5074048;28;20858;-80
2023/04/25 03:53:17;;;;;;;2.50;2.30;;;9.80;79.50;;;;;;5074541;28;20383;-80
2023/04/25 03:55:43;;;;;;;3.15;2.65;;;9.60;99.90;;;;;;5056440;28;20393;-81
2023/04/25 03:58:08;;;;;;;3.10;2.30;;;9.30;99.90;;;;;;5069543;28;20891;-80
2023/04/25 04:00:34;;;;;;;4.10;2.50;;;9.10;99.90;;;;;;5036268;28;20450;-81
2023/04/25 04:03:00;;;;;;;3.80;2.50;;;9.10;99.90;;;;;;5053675;28;20464;-80
2023/04/25 04:05:25;;;;;;;3.40;2.40;;;8.90;99.90;;;;;;5053632;28;20417;-81
2023/04/25 04:07:51;;;;;;;3.07;2.77;;;8.80;99.90;;;;;;5035399;28;20441;-80
2023/04/25 04:10:16;;;;;;;3.33;2.40;;;8.70;99.90;;;;;;5054887;28;20385;-80
2023/04/25 04:12:42;;;;;;;3.30;2.90;;;8.70;99.90;;;;;;5056565;28;20895;-80
2023/04/25 04:15:09;;;;;;;4.43;3.60;;;8.60;99.90;;;;;;5055525;28;20396;-81
2023/04/25 04:17:35;;;;;;;3.17;2.75;;;8.60;99.90;;;;;;5053317;28;20377;-80
2023/04/25 04:20:00;;;;;;;3.42;3.13;;;8.70;99.90;;;;;;5054331;28;20498;-81
2023/04/25 04:22:26;;;;;;;4.30;3.00;;;8.60;99.90;;;;;;5058385;28;20828;-80
2023/04/25 04:24:51;;;;;;;4.77;3.50;;;8.50;99.90;;;;;;5063819;28;20386;-79
2023/04/25 04:27:19;;;;;;;4.10;3.10;;;8.40;99.90;;;;;;5064635;28;20409;-80
2023/04/25 04:29:45;;;;;;;3.22;2.80;;;8.40;99.90;;;;;;5061219;28;20394;-81
2023/04/25 04:32:11;;;;;;;4.80;3.10;;;8.40;99.90;;;;;;5054083;28;20386;-80
2023/04/25 04:34:39;;;;;;;6.10;3.10;;;8.50;99.90;;;;;;5057085;28;20393;-80
2023/04/25 04:37:04;;;;;;;3.67;3.00;;;8.50;99.90;;;;;;5057237;28;20389;-80
2023/04/25 04:39:30;;;;;;;5.07;3.17;;;8.50;99.90;;;;;;5057404;28;20802;-81
2023/04/25 04:41:56;;;;;;;4.70;2.97;;;8.50;99.90;;;;;;5056781;28;20373;-81
2023/04/25 04:44:21;;;;;;;7.20;3.00;;;8.50;99.90;;;;;;5057299;28;20385;-80
2023/04/25 04:46:47;;;;;;;4.30;2.80;;;8.60;99.90;;;;;;5064104;28;20473;-80
2023/04/25 04:49:15;;;;;;;2.90;2.60;;;8.50;99.90;;;;;;5077818;28;20391;-80
2023/04/25 04:51:44;;;;;;;3.77;2.77;;;8.50;99.90;;;;;;5059576;28;20455;-80
2023/04/25 04:54:09;;;;;;;6.22;2.90;;;8.60;99.90;;;;;;5078133;28;20388;-80
2023/04/25 04:56:35;;;;;;;3.80;2.90;;;8.40;99.90;;;;;;5059151;28;21059;-81
2023/04/25 04:59:02;;;;;;;3.80;2.90;;;8.50;99.90;;;;;;5062597;28;20394;-81
2023/04/25 05:01:29;;;;;;;7.53;3.47;;;8.40;99.90;;;;;;5041105;28;20419;-81
2023/04/25 05:03:59;;;;;;;3.40;2.90;;;8.40;99.90;;;;;;5080959;28;20416;-81
2023/04/25 05:06:26;;;;;;;5.63;3.03;;;8.40;99.90;;;;;;5076036;28;20417;-81
2023/04/25 05:08:52;;;;;;;4.80;2.75;;;8.40;99.90;;;;;;5076313;28;20709;-80
2023/04/25 05:11:19;;;;;;;3.67;3.17;;;8.50;99.90;;;;;;5074525;28;20463;-82
2023/04/25 05:13:45;;;;;;;3.25;2.80;;;8.50;99.90;;;;;;5097977;28;20378;-81
2023/04/25 05:16:11;;;;;;;5.63;3.00;;;8.50;99.90;;;;;;5093340;28;20527;-80
2023/04/25 05:18:37;;;;;;;5.50;3.40;;;8.40;99.90;;;;;;5091374;28;20386;-81
2023/04/25 05:21:02;;;;;;;4.88;3.20;;;8.50;99.90;;;;;;5085083;28;20478;-80
2023/04/25 05:23:29;;;;;;;4.95;3.40;;;8.50;99.90;;;;;;5091807;28;20389;-81
2023/04/25 05:25:55;;;;;;;5.78;3.90;;;8.50;99.90;;;;;;5068078;28;20919;-81
2023/04/25 05:28:21;;;;;;;5.45;3.80;;;8.80;99.90;;;;;;5091216;28;20438;-80
2023/04/25 05:30:46;;;;;;;6.97;3.70;;;8.90;99.90;;;;;;5101857;28;20390;-82
2023/04/25 05:33:12;;;;;;;3.45;2.40;;;8.70;99.90;;;;;;5098771;28;20481;-81
2023/04/25 05:35:37;;;;;;;6.30;2.87;;;8.40;99.90;;;;;;5097704;28;20379;-81
2023/04/25 05:38:03;;;;;;;5.13;2.80;;;8.20;99.90;;;;;;5083149;28;20392;-83
2023/04/25 05:40:28;;;;;;;2.97;2.40;;;8.10;99.90;;;;;;5084556;28;20407;-83
2023/04/25 05:42:54;;;;;;;2.65;2.17;;;8.00;99.90;;;;;;5084394;28;20386;-84
2023/04/25 05:45:19;;;;;;;4.70;2.30;;;8.00;99.90;;;;;;5099787;28;20378;-81
2023/04/25 05:47:45;;;;;;;2.33;2.00;;;8.00;99.90;;;;;;5098214;28;20440;-82
2023/04/25 05:50:10;;;;;;;2.13;1.50;;;8.00;99.90;;;;;;5102343;28;20390;-83
2023/04/25 05:52:36;;;;;;;2.30;1.60;;;7.90;99.90;;;;;;5081688;28;20366;-82
2023/04/25 05:55:02;;;;;;;2.10;1.90;;;7.80;99.90;;;;;;5102667;28;20436;-82
2023/04/25 05:57:27;;;;;;;2.03;1.70;;;7.80;99.90;;;;;;5102903;28;20402;-82
2023/04/25 05:59:54;;;;;;;1.80;1.70;;;7.60;99.90;;;;;;5077199;28;20813;-86
2023/04/25 06:02:21;;;;;;;3.50;1.50;;;7.60;99.90;;;;;;5056742;28;20812;-84
2023/04/25 06:04:47;;;;;;;1.70;1.60;;;7.40;99.90;;;;;;5076329;28;20379;-84
2023/04/25 06:07:13;;;;;;;2.00;1.50;;;7.30;99.90;;;;;;5056757;28;20407;-86
2023/04/25 06:09:39;;;;;;;1.77;1.20;;;7.20;99.90;;;;;;5056768;28;20491;-83
2023/04/25 06:12:06;;;;;;;1.10;1.00;;;7.10;99.90;;;;;;5093199;28;20363;-82
2023/04/25 06:14:31;;;;;;;2.50;1.00;;;7.10;99.90;;;;;;5091693;28;20372;-82
2023/04/25 06:16:57;;;;;;;0.80;0.80;;;7.10;99.90;;;;;;5080622;28;20386;-83
2023/04/25 06:19:23;;;;;;;2.70;1.00;;;7.10;99.90;;;;;;5079821;28;20744;-86
2023/04/25 06:21:48;;;;;;;0.95;0.80;;;7.10;99.90;;;;;;5074453;28;20408;-84
2023/04/25 06:24:14;;;;;;;0.67;0.60;;;7.10;99.90;;;;;;5056753;28;20471;-86
2023/04/25 06:26:39;;;;;;;1.97;1.30;;;7.10;99.90;;;;;;5074369;28;20401;-84
2023/04/25 06:29:05;;;;;;;2.07;1.00;;;7.10;99.90;;;;;;5079110;28;20869;-84
2023/04/25 06:31:32;;;;;;;1.13;1.03;;;7.00;99.90;;;;;;5056818;28;20395;-85
2023/04/25 06:33:58;;;;;;;1.55;1.02;;;7.00;99.90;;;;;;5055918;28;20419;-84
2023/04/25 06:36:25;;;;;;;1.20;1.10;;;7.00;99.90;;;;;;5073844;28;20520;-85
2023/04/25 06:38:52;;;;;;;2.30;0.90;;;7.10;99.90;;;;;;5058286;28;20398;-84
2023/04/25 06:41:18;;;;;;;1.07;0.97;;;7.10;99.90;;;;;;5057352;28;20448;-82
2023/04/25 06:43:44;;;;;;;1.23;0.90;;;7.10;99.90;;;;;;5076008;28;20384;-84
2023/04/25 06:46:09;;;;;;;1.75;1.00;;;7.10;99.90;;;;;;5073084;28;20448;-85
2023/04/25 06:48:35;;;;;;;1.27;1.00;;;7.10;99.90;;;;;;5054718;28;20388;-85
2023/04/25 06:51:00;;;;;;;0.73;0.73;;;7.10;99.90;;;;;;5057055;28;20390;-84
2023/04/25 06:53:26;;;;;;;1.70;1.40;;;7.10;99.90;;;;;;5055973;28;20470;-85
2023/04/25 06:55:51;;;;;;;1.97;1.40;;;7.10;99.90;;;;;;5071603;28;20380;-85
2023/04/25 06:58:17;;;;;;;1.57;1.30;;;7.20;99.90;;;;;;5046856;28;20397;-86
2023/04/25 07:00:43;;;;;;;2.00;1.30;;;7.20;99.90;;;;;;5035001;28;20400;-84
2023/04/25 07:03:09;;;;;;;1.83;1.60;;;7.30;99.90;;;;;;5037133;28;20419;-85
2023/04/25 07:05:35;;;;;;;1.80;1.40;;;7.20;99.90;;;;;;5037799;28;20751;-84
2023/04/25 07:08:00;;;;;;;2.70;1.70;;;7.30;99.90;;;;;;5063099;28;20388;-84
2023/04/25 07:10:26;;;;;;;1.97;1.70;;;7.20;99.90;;;;;;5052279;28;20438;-84
2023/04/25 07:12:51;;;;;;;3.50;2.20;;;7.30;99.90;;;;;;5072981;28;20422;-85
2023/04/25 07:15:17;;;;;;;4.90;2.20;;;7.30;99.90;;;;;;5049505;28;20800;-86
2023/04/25 07:17:43;;;;;;;3.40;2.30;;;7.30;99.90;;;;;;5064259;28;20397;-83
2023/04/25 07:20:09;;;;;;;2.17;1.90;;;7.30;99.90;;;;;;5060627;28;20381;-83
2023/04/25 07:22:35;;;;;;;3.10;1.90;;;7.30;99.90;;;;;;5039047;28;20397;-85
2023/04/25 07:25:01;;;;;;;2.00;1.80;;;7.30;99.90;;;;;;5046677;28;20395;-85
2023/04/25 07:27:26;;;;;;;2.20;2.00;;;7.20;99.90;;;;;;5037594;28;20455;-83
2023/04/25 07:29:52;;;;;;;2.38;2.17;;;7.10;99.90;;;;;;5041129;28;20402;-84
2023/04/25 07:32:17;;;;;;;2.63;2.42;;;7.20;99.90;;;;;;5069124;28;20463;-83
2023/04/25 07:34:43;;;;;;;4.13;2.60;;;7.20;99.90;;;;;;5067627;28;20907;-84
2023/04/25 07:37:08;;;;;;;3.40;2.70;;;7.20;99.90;;;;;;5058254;28;20902;-84
2023/04/25 07:39:34;;;;;;;3.00;2.70;;;7.30;99.90;;;;;;5054834;28;20388;-85
2023/04/25 07:42:01;;;;;;;3.60;2.90;;;7.30;99.90;;;;;;5055539;28;20379;-83
2023/04/25 07:44:27;;;;;;;3.53;2.63;;;7.30;99.90;;;;;;5073711;28;20399;-84
2023/04/25 07:46:53;;;;;;;3.30;3.00;;;7.20;99.90;;;;;;5073077;28;20408;-85
2023/04/25 07:49:18;;;;;;;4.68;3.10;;;7.10;99.90;;;;;;5074562;28;20380;-84
2023/04/25 07:51:44;;;;;;;3.28;2.92;;;7.20;99.90;;;;;;5072826;28;20794;-85
2023/04/25 07:54:14;;;;;;;3.70;3.10;;;7.20;99.90;;;;;;5054015;28;20889;-83
2023/04/25 07:56:40;;;;;;;3.90;3.20;;;7.20;99.90;;;;;;5071800;28;20423;-84
2023/04/25 07:59:05;;;;;;;3.75;3.45;;;7.20;99.90;;;;;;5037856;28;20504;-85
2023/04/25 08:01:31;;;;;;;2.95;2.72;;;7.30;99.90;;;;;;5051330;28;20385;-84
2023/04/25 08:03:56;;;;;;;5.72;3.40;;;7.30;99.90;;;;;;5044712;28;20412;-85
2023/04/25 08:06:22;;;;;;;3.63;3.20;;;7.30;99.90;;;;;;5046299;28;20425;-84
2023/04/25 08:08:47;;;;;;;3.23;2.93;;;7.50;99.90;;;;;;5054767;28;20392;-84
2023/04/25 08:11:13;;;;;;;4.17;3.23;;;7.60;99.90;;;;;;5037846;28;20395;-84
2023/04/25 08:13:39;;;;;;;3.70;3.30;;;7.60;99.90;;;;;;5036362;28;20425;-84
2023/04/25 08:16:04;;;;;;;4.80;3.40;;;7.60;99.90;;;;;;5035957;28;20472;-84
2023/04/25 08:18:30;;;;;;;3.58;3.10;;;7.80;99.90;;;;;;5054093;28;20385;-84
2023/04/25 08:20:56;;;;;;;4.10;3.70;;;7.90;99.90;;;;;;5036739;28;20400;-84
2023/04/25 08:23:22;;;;;;;3.53;3.22;;;8.00;99.90;;;;;;5037248;28;20397;-85
2023/04/25 08:25:47;;;;;;;3.00;2.70;;;7.90;99.90;;;;;;5036753;28;21052;-85
2023/04/25 08:28:13;;;;;;;3.47;3.17;;;7.70;99.90;;;;;;5055056;28;20908;-84
2023/04/25 08:30:38;;;;;;;3.80;2.87;;;7.80;99.90;;;;;;5054218;28;20469;-85
2023/04/25 08:33:04;;;;;;;3.50;3.10;;;7.80;99.90;;;;;;5055074;28;20444;-83
2023/04/25 08:35:29;;;;;;;3.90;3.30;;;7.80;99.90;;;;;;5056014;28;20385;-84
2023/04/25 08:37:55;;;;;;;3.15;2.50;;;7.70;99.90;;;;;;5055107;28;20748;-84
2023/04/25 08:40:25;;;;;;;2.92;2.63;;;7.70;99.90;;;;;;5058408;28;20378;-85
2023/04/25 08:42:53;;;;;;;2.92;2.60;;;7.70;99.90;;;;;;5054654;28;20381;-85
2023/04/25 08:45:18;;;;;;;2.97;2.67;;;7.70;99.90;;;;;;5055844;28;20563;-83
2023/04/25 08:47:48;;;;;;;3.40;3.10;;;7.80;99.90;;;;;;5037763;28;20865;-83
2023/04/25 08:50:14;;;;;;;2.60;2.40;;;7.90;99.90;;;;;;5059004;28;20435;-84
2023/04/25 08:52:46;;;;;;;3.20;2.30;;;7.90;99.90;;;;;;5042685;28;20394;-84
2023/04/25 08:55:13;;;;;;;2.60;2.40;;;8.00;99.90;;;;;;5064997;28;20930;-84
2023/04/25 08:57:41;;;;;;;2.95;2.30;;;7.90;99.90;;;;;;5043174;28;20406;-84
2023/04/25 09:00:07;;;;;;;3.13;2.55;;;8.00;99.90;;;;;;5042264;28;20393;-83
2023/04/25 09:02:33;;;;;;;3.08;2.28;;;7.90;99.90;;;;;;5054238;28;20382;-83
2023/04/25 09:04:59;;;;;;;2.72;2.53;;;8.00;99.90;;;;;;5056188;28;20481;-84
2023/04/25 09:07:25;;;;;;;3.47;2.45;;;7.90;99.90;;;;;;5076899;28;20433;-83
2023/04/25 09:09:51;;;;;;;4.40;2.60;;;8.10;99.90;;;;;;5077076;28;20386;-83
2023/04/25 09:12:19;;;;;;;2.90;2.63;;;8.10;99.90;;;;;;5058866;28;20376;-83
2023/04/25 09:15:05;;;;;;;2.60;2.40;;;8.00;99.90;;;;;;5058475;28;20399;-82
2023/04/25 09:17:30;;;;;;;2.80;2.60;;;8.20;99.90;;;;;;5047328;28;20396;-83
2023/04/25 09:20:14;;;;;;;3.00;2.70;;;8.10;99.90;;;;;;5066498;28;20434;-83
2023/04/25 09:22:39;;;;;;;3.20;2.70;;;8.20;99.90;;;;;;5039218;28;20915;-82
2023/04/25 09:25:10;;;;;;;3.30;2.80;;;8.20;99.90;;;;;;5074341;28;20388;-82
2023/04/25 09:27:36;;;;;;;2.55;2.30;;;8.30;99.90;;;;;;5066785;28;20413;-82
2023/04/25 09:30:02;;;;;;;2.40;2.13;;;8.30;99.90;;;;;;5074875;28;20380;-83
2023/04/25 09:32:28;;;;;;;2.50;2.30;;;8.30;99.90;;;;;;5061757;28;20376;-83
2023/04/25 09:34:55;;;;;;;2.00;1.80;;;8.30;99.90;;;;;;5078151;28;20431;-82
2023/04/25 09:37:23;;;;;;;2.40;2.20;;;8.30;99.90;;;;;;5087530;28;20478;-81
2023/04/25 09:39:50;;;;;;;2.63;2.22;;;8.50;99.90;;;;;;5091429;28;20399;-82
2023/04/25 09:42:17;;;;;;;2.80;2.60;;;8.50;99.90;;;;;;5068933;28;20389;-81
2023/04/25 09:44:46;;;;;;;2.08;1.88;;;8.60;99.90;;;;;;5075452;28;20390;-81
2023/04/25 09:47:15;;;;;;;3.97;2.30;;;8.80;99.90;;;;;;5056529;28;20769;-80
2023/04/25 09:49:42;;;;;;;2.45;1.95;;;9.00;99.90;;;;;;5057424;28;20379;-81
2023/04/25 09:52:08;;;;;;;2.78;1.95;;;9.00;99.90;;;;;;5088290;28;20372;-82
2023/04/25 09:54:33;;;;;;;2.00;1.90;;;9.10;99.90;;;;;;5061216;28;20387;-82
2023/04/25 09:57:10;;;;;;;2.53;2.03;;;9.50;99.90;;;;;;5057420;28;20415;-82
2023/04/25 09:59:39;;;;;;;2.45;1.90;;;9.70;99.90;;;;;;5054188;28;20840;-84
2023/04/25 10:02:07;;;;;;;2.38;1.90;;;10.00;99.90;;;;;;5036535;28;20386;-83
2023/04/25 10:04:34;;;;;;;1.70;1.60;;;9.90;99.90;;;;;;5054758;28;20863;-83
2023/04/25 10:07:00;;;;;;;1.50;1.40;;;9.70;99.90;;;;;;5034700;28;20414;-83
2023/04/25 10:09:29;;;;;;;2.13;1.55;;;9.80;99.90;;;;;;5035170;28;20911;-85
2023/04/25 10:11:55;;;;;;;1.80;1.70;;;9.70;99.90;;;;;;5034028;28;20386;-84
2023/04/25 10:14:22;;;;;;;1.70;1.60;;;9.80;99.90;;;;;;5034288;28;20381;-85
2023/04/25 10:16:48;;;;;;;1.50;1.40;;;9.90;99.90;;;;;;5053077;28;20893;-84
2023/04/25 10:19:14;;;;;;;1.70;1.30;;;9.90;99.90;;;;;;5034825;28;20447;-84
2023/04/25 10:21:47;;;;;;;1.70;1.60;;;10.10;99.90;;;;;;5052910;28;20465;-84
2023/04/25 10:24:14;;;;;;;1.40;1.30;;;10.10;99.90;;;;;;5053199;28;20400;-83
2023/04/25 10:26:40;;;;;;;2.60;1.40;;;10.50;99.90;;;;;;5036720;28;20871;-84
2023/04/25 10:29:05;;;;;;;1.40;1.30;;;10.50;99.90;;;;;;5054418;28;20382;-84
2023/04/25 10:31:31;;;;;;;2.10;1.35;;;10.40;99.90;;;;;;5034369;28;20436;-84
2023/04/25 10:33:59;;;;;;;1.60;1.50;;;10.60;99.90;;;;;;5035119;28;20805;-84
2023/04/25 10:36:26;;;;;;;1.47;1.37;;;10.80;99.90;;;;;;5034072;28;20895;-86
2023/04/25 10:38:52;;;;;;;1.55;1.45;;;10.50;99.90;;;;;;5035146;28;20385;-83
2023/04/25 10:41:22;;;;;;;1.35;1.25;;;11.00;99.90;;;;;;5036931;28;20443;-83
2023/04/25 10:43:50;;;;;;;3.38;1.50;;;11.00;99.90;;;;;;5037003;28;20472;-83
2023/04/25 10:46:23;;;;;;;2.40;2.00;;;10.70;99.90;;;;;;5036754;28;20405;-83
2023/04/25 10:48:54;;;;;;;2.13;1.92;;;10.60;99.90;;;;;;5037420;28;20382;-83
2023/04/25 10:51:21;;;;;;;1.92;1.83;;;10.00;99.90;;;;;;5054788;28;20441;-83
2023/04/25 10:53:56;;;;;;;3.70;2.15;;;10.20;99.90;;;;;;5055241;28;20839;-83
2023/04/25 10:56:30;;;;;;;2.10;1.80;;;10.20;99.90;;;;;;5036424;28;20446;-83
2023/04/25 10:59:11;;;;;;;2.70;1.83;;;9.70;99.90;;;;;;5037587;28;20393;-83
2023/04/25 11:01:51;;;;;;;2.40;2.20;;;9.60;99.90;;;;;;5037026;28;20461;-83
2023/04/25 11:04:30;;;;;;;2.67;2.17;;;9.80;99.90;;;;;;5036711;28;20390;-83
2023/04/25 11:07:37;;;;;;;2.80;2.10;;;10.00;99.90;;;;;;5053724;28;20406;-83
2023/04/25 11:10:04;;;;;;;2.38;2.17;;;10.40;99.90;;;;;;5036026;28;20386;-83
2023/04/25 11:12:31;;;;;;;2.80;2.20;;;10.70;99.90;;;;;;5035916;28;20384;-83
2023/04/25 11:15:07;;;;;;;2.88;2.10;;;11.00;99.90;;;;;;5045368;28;20387;-83
2023/04/25 11:17:33;;;;;;;3.33;2.22;;;10.60;99.90;;;;;;5072786;28;20379;-83
2023/04/25 11:19:59;;;;;;;3.40;2.25;;;10.90;99.90;;;;;;5059229;28;20748;-82
2023/04/25 11:22:27;;;;;;;2.85;2.10;;;11.60;99.90;;;;;;5065827;28;20395;-82
2023/04/25 11:24:53;;;;;;;2.08;1.88;;;12.20;99.90;;;;;;5058585;28;20405;-83
2023/04/25 11:27:18;;;;;;;2.33;2.13;;;12.80;99.90;;;;;;5089823;28;20418;-82
2023/04/25 11:29:44;;;;;;;2.10;2.00;;;13.50;99.90;;;;;;5063556;28;20396;-82
2023/04/25 11:32:10;;;;;;;3.40;1.95;;;13.80;37.00;;;;;;5056860;28;20387;-83
2023/04/25 11:34:35;;;;;;;2.08;1.73;;;13.20;43.90;;;;;;5072920;28;20884;-85
2023/04/25 11:37:02;;;;;;;2.30;2.10;;;12.80;30.80;;;;;;5055680;28;20430;-82
2023/04/25 11:39:28;;;;;;;2.30;2.10;;;11.80;53.40;;;;;;5067275;28;20387;-82
2023/04/25 11:41:54;;;;;;;2.80;2.20;;;11.50;64.50;;;;;;5086332;28;20390;-83
2023/04/25 11:44:21;;;;;;;3.70;2.00;;;11.20;90.70;;;;;;5067314;28;20865;-82
2023/04/25 11:46:46;;;;;;;2.88;2.10;;;10.80;99.90;;;;;;5064584;28;20438;-83
2023/04/25 11:49:13;;;;;;;3.22;2.22;;;10.70;99.90;;;;;;5071874;28;20388;-83
2023/04/25 11:51:43;;;;;;;3.13;2.33;;;10.50;99.90;;;;;;5069092;28;20390;-82
2023/04/25 11:54:10;;;;;;;2.20;2.00;;;10.40;99.90;;;;;;5085800;28;20384;-82
2023/04/25 11:56:35;;;;;;;3.28;2.60;;;10.20;99.90;;;;;;5080207;28;20913;-82
2023/04/25 11:59:04;;;;;;;3.30;2.70;;;10.00;99.90;;;;;;5046935;28;20416;-82
2023/04/25 12:01:32;;;;;;;3.20;2.90;;;9.80;99.90;;;;;;5065922;28;20417;-82
2023/04/25 12:03:58;;;;;;;3.22;2.92;;;9.60;99.90;;;;;;5066782;28;20397;-82
2023/04/25 12:06:29;;;;;;;5.60;2.80;;;9.50;99.90;;;;;;5039173;28;20405;-83
2023/04/25 12:09:06;;;;;;;3.50;3.20;;;9.40;99.90;;;;;;5057392;28;20381;-82
2023/04/25 12:11:32;;;;;;;4.30;3.40;;;9.70;99.90;;;;;;5037543;28;20374;-84
2023/04/25 12:14:06;;;;;;;2.58;2.13;;;11.20;99.90;;;;;;5055936;28;20427;-84
2023/04/25 12:16:43;;;;;;;2.70;2.50;;;12.10;99.90;;;;;;5055046;28;20385;-84
2023/04/25 12:19:09;;;;;;;2.25;1.90;;;13.20;99.90;;;;;;5056282;28;20389;-82
2023/04/25 12:21:35;;;;;;;2.13;1.90;;;13.20;99.90;;;;;;5038540;28;20479;-82
2023/04/25 12:24:24;;;;;;;1.95;1.60;;;13.70;99.90;;;;;;5064173;28;20401;-82
2023/04/25 12:26:52;;;;;;;2.22;1.90;;;14.00;90.10;;;;;;5058685;28;20403;-82
2023/04/25 12:29:23;;;;;;;2.38;1.63;;;13.80;99.90;;;;;;5078720;28;20379;-82
2023/04/25 12:31:50;;;;;;;1.80;1.70;;;14.30;99.90;;;;;;5076617;28;20471;-82
2023/04/25 12:34:15;;;;;;;1.88;1.45;;;15.00;97.00;;;;;;5059579;28;20394;-82
2023/04/25 12:36:41;;;;;;;1.50;1.40;;;15.70;51.90;;;;;;5068330;28;20387;-82
2023/04/25 12:39:07;;;;;;;1.60;1.50;;;15.10;36.60;;;;;;5052938;28;20393;-81
2023/04/25 12:41:33;;;;;;;1.70;1.60;;;13.50;43.80;;;;;;5069580;28;20390;-82
2023/04/25 12:43:59;;;;;;;1.80;1.50;;;13.10;63.30;;;;;;5057199;28;20414;-82
2023/04/25 12:46:24;;;;;;;1.88;1.75;;;12.80;99.90;;;;;;5078731;28;20397;-82
2023/04/25 12:48:50;;;;;;;1.30;1.20;;;12.80;74.70;;;;;;5049202;28;20384;-82
2023/04/25 12:51:16;;;;;;;2.00;1.70;;;12.70;77.30;;;;;;5050519;28;20395;-81